Time;durP1;ratioP1;P1;durP2;ratioP2;P2;SDS_P1;SDS_P2;PMS_P1;PMS_P2;Temp;Humidity;BMP_temperature;BMP_pressure;BME280_temperature;BME280_humidity;BME280_pressure;Samples;Min_cycle;Max_cycle;Signal;HPM_P1;HPM_P2
2022/08/14 00:01:12;;;;;;;2.25;0.35;;;33.60;27.60;;;;;;5084358;28;20064;-57
2022/08/14 00:03:39;;;;;;;2.45;0.32;;;33.70;27.70;;;;;;5083129;28;20110;-58
2022/08/14 00:06:07;;;;;;;1.17;0.70;;;33.60;27.70;;;;;;5067762;28;20519;-57
2022/08/14 00:08:34;;;;;;;3.35;0.40;;;33.60;27.70;;;;;;5068021;28;20044;-56
2022/08/14 00:11:01;;;;;;;1.60;0.40;;;33.60;27.80;;;;;;5069291;28;20040;-56
2022/08/14 00:13:28;;;;;;;1.63;1.13;;;33.60;27.80;;;;;;5081261;28;20032;-58
2022/08/14 00:15:59;;;;;;;2.47;0.40;;;33.60;27.90;;;;;;5069268;28;20036;-57
2022/08/14 00:18:28;;;;;;;2.22;0.50;;;33.60;27.90;;;;;;5083436;28;20106;-58
2022/08/14 00:20:56;;;;;;;1.58;0.30;;;33.60;28.00;;;;;;5073125;28;20729;-55
2022/08/14 00:23:23;;;;;;;2.47;0.32;;;33.60;28.00;;;;;;5077676;28;20584;-59
2022/08/14 00:25:53;;;;;;;3.95;0.28;;;33.50;28.00;;;;;;5086985;28;20036;-58
2022/08/14 00:28:25;;;;;;;2.85;0.30;;;33.60;28.00;;;;;;5083687;28;20184;-58
2022/08/14 00:30:55;;;;;;;1.00;0.77;;;33.50;28.00;;;;;;5049579;28;20471;-56
2022/08/14 00:33:24;;;;;;;1.65;0.40;;;33.50;28.00;;;;;;5067509;28;20048;-57
2022/08/14 00:35:52;;;;;;;0.77;0.63;;;33.50;28.10;;;;;;5070610;28;20045;-58
2022/08/14 00:38:19;;;;;;;3.03;0.30;;;33.50;28.70;;;;;;5080841;28;20040;-58
2022/08/14 00:40:47;;;;;;;1.23;0.30;;;33.50;28.10;;;;;;5072103;28;20056;-58
2022/08/14 00:43:15;;;;;;;0.57;0.57;;;33.50;28.20;;;;;;5086891;28;20098;-59
2022/08/14 00:45:42;;;;;;;1.05;0.20;;;33.50;28.20;;;;;;5086773;28;20036;-58
2022/08/14 00:48:10;;;;;;;3.13;0.60;;;33.50;28.20;;;;;;5068516;28;20105;-58
2022/08/14 00:50:38;;;;;;;1.48;0.28;;;33.50;28.30;;;;;;5071511;28;20147;-59
2022/08/14 00:53:08;;;;;;;0.90;0.38;;;33.50;28.30;;;;;;5071313;28;20052;-59
2022/08/14 00:55:40;;;;;;;0.20;0.20;;;33.50;28.30;;;;;;5073382;28;20028;-58
2022/08/14 01:00:53;;;;;;;0.95;0.30;;;33.50;28.30;;;;;;5067360;28;20056;-58
2022/08/14 01:03:21;;;;;;;0.40;0.20;;;33.40;28.30;;;;;;5068860;28;20055;-59
2022/08/14 01:05:51;;;;;;;2.05;0.40;;;33.40;28.30;;;;;;5074424;28;20048;-58
2022/08/14 01:08:20;;;;;;;0.50;0.30;;;33.40;28.80;;;;;;5077490;28;20048;-59
2022/08/14 01:10:51;;;;;;;0.95;0.40;;;33.40;28.40;;;;;;5081444;28;20047;-59
2022/08/14 01:13:20;;;;;;;0.38;0.38;;;33.40;28.30;;;;;;5076477;28;20052;-57
2022/08/14 01:15:50;;;;;;;0.32;0.20;;;33.40;28.40;;;;;;5090452;28;20044;-57
2022/08/14 01:21:07;;;;;;;0.32;0.32;;;33.40;28.40;;;;;;5071030;28;20047;-58
2022/08/14 01:23:39;;;;;;;1.15;0.30;;;33.40;28.40;;;;;;5065931;28;20048;-58
2022/08/14 01:26:07;;;;;;;0.85;0.30;;;33.40;28.40;;;;;;5070747;28;20121;-57
2022/08/14 01:28:36;;;;;;;1.38;0.20;;;33.30;28.40;;;;;;5072662;28;20055;-57
2022/08/14 01:31:09;;;;;;;1.05;0.38;;;33.30;28.40;;;;;;5052781;28;20066;-58
2022/08/14 01:33:43;;;;;;;0.40;0.30;;;33.30;28.40;;;;;;5071942;28;20040;-58
2022/08/14 01:36:11;;;;;;;0.40;0.20;;;33.30;28.40;;;;;;5083576;28;20098;-56
2022/08/14 01:38:44;;;;;;;0.30;0.20;;;33.30;28.40;;;;;;5070354;28;20052;-57
2022/08/14 01:41:14;;;;;;;0.40;0.20;;;33.30;28.40;;;;;;5070170;28;20044;-57
2022/08/14 01:43:47;;;;;;;0.30;0.20;;;33.30;28.40;;;;;;5085515;28;20046;-59
2022/08/14 01:46:15;;;;;;;0.35;0.15;;;33.30;28.40;;;;;;5071303;28;20779;-55
2022/08/14 01:48:44;;;;;;;1.55;0.20;;;33.30;28.40;;;;;;5089720;28;20031;-58
2022/08/14 01:51:12;;;;;;;1.17;0.20;;;33.20;28.40;;;;;;5089557;28;20135;-57
2022/08/14 01:53:43;;;;;;;1.33;0.65;;;33.20;28.40;;;;;;5080395;28;20036;-58
2022/08/14 01:56:11;;;;;;;1.95;0.20;;;33.20;28.40;;;;;;5078606;28;20577;-58
2022/08/14 01:58:38;;;;;;;0.30;0.30;;;33.20;28.40;;;;;;5069656;28;20107;-58
2022/08/14 02:01:05;;;;;;;0.22;0.22;;;33.20;28.40;;;;;;5078401;28;20423;-57
2022/08/14 02:03:39;;;;;;;0.28;0.20;;;33.20;28.40;;;;;;5061607;28;20046;-58
2022/08/14 02:06:07;;;;;;;0.20;0.20;;;33.20;28.40;;;;;;5089474;28;20076;-57
2022/08/14 02:08:36;;;;;;;0.47;0.47;;;33.20;28.40;;;;;;5071423;28;20119;-58
2022/08/14 02:11:24;;;;;;;0.17;0.17;;;33.20;28.40;;;;;;5086733;28;20048;-58
2022/08/14 02:13:57;;;;;;;0.20;0.10;;;33.20;28.40;;;;;;5086870;28;20390;-58
2022/08/14 02:16:28;;;;;;;1.17;0.20;;;33.20;28.40;;;;;;5071185;28;20062;-58
2022/08/14 02:18:57;;;;;;;0.50;0.50;;;33.20;28.90;;;;;;5089903;28;20067;-59
2022/08/14 02:21:26;;;;;;;0.55;0.20;;;33.20;28.50;;;;;;5076276;28;20512;-57
2022/08/14 02:23:55;;;;;;;0.17;0.17;;;33.20;28.50;;;;;;5058363;28;20044;-57
2022/08/14 02:26:26;;;;;;;0.10;0.10;;;33.20;28.50;;;;;;5088923;28;20097;-55
2022/08/14 02:28:58;;;;;;;0.25;0.20;;;33.20;28.50;;;;;;5045411;28;20064;-57
2022/08/14 02:31:31;;;;;;;0.25;0.25;;;33.20;28.50;;;;;;5052658;28;20049;-57
2022/08/14 02:33:58;;;;;;;1.45;0.10;;;33.20;28.50;;;;;;5070592;28;20419;-58
2022/08/14 02:36:25;;;;;;;1.55;0.17;;;33.10;28.40;;;;;;5070810;28;20040;-58
2022/08/14 02:38:53;;;;;;;0.35;0.10;;;33.10;28.40;;;;;;5088880;28;20169;-56
2022/08/14 02:41:20;;;;;;;0.10;0.10;;;33.10;28.90;;;;;;5088825;28;20042;-57
2022/08/14 02:43:49;;;;;;;0.35;0.10;;;33.10;28.40;;;;;;5073994;28;20144;-58
2022/08/14 02:46:16;;;;;;;1.27;0.10;;;33.10;28.40;;;;;;5070061;28;20044;-57
2022/08/14 02:48:44;;;;;;;0.85;0.15;;;33.10;28.40;;;;;;5083314;28;20036;-57
2022/08/14 02:51:14;;;;;;;0.47;0.20;;;33.10;28.40;;;;;;5080452;28;20043;-59
2022/08/14 02:53:44;;;;;;;0.10;0.10;;;33.10;29.00;;;;;;5075316;28;20129;-57
2022/08/14 02:56:14;;;;;;;0.40;0.40;;;33.10;28.40;;;;;;5086539;28;20048;-58
2022/08/14 02:58:45;;;;;;;0.10;0.10;;;33.10;28.40;;;;;;5084020;28;20747;-54
2022/08/14 03:01:15;;;;;;;0.30;0.20;;;33.10;28.40;;;;;;5050912;28;20040;-58
2022/08/14 03:03:43;;;;;;;0.77;0.52;;;33.10;28.40;;;;;;5088531;28;20090;-55
2022/08/14 03:06:11;;;;;;;0.22;0.10;;;33.10;28.40;;;;;;5053990;28;20056;-56
2022/08/14 03:08:39;;;;;;;0.38;0.20;;;33.00;28.40;;;;;;5079513;28;20040;-59
2022/08/14 03:11:08;;;;;;;0.10;0.10;;;33.10;28.40;;;;;;5084434;28;20079;-58
2022/08/14 03:13:36;;;;;;;0.17;0.13;;;33.00;28.40;;;;;;5087743;28;20055;-57
2022/08/14 03:16:04;;;;;;;0.10;0.10;;;33.00;28.40;;;;;;5087947;28;20132;-53
2022/08/14 03:18:35;;;;;;;2.30;0.10;;;33.00;28.40;;;;;;5084668;28;20160;-58
2022/08/14 03:21:06;;;;;;;0.10;0.10;;;33.00;28.40;;;;;;5070548;28;20412;-58
2022/08/14 03:23:34;;;;;;;0.10;0.10;;;33.00;28.40;;;;;;5082219;28;20071;-54
2022/08/14 03:26:02;;;;;;;0.10;0.10;;;33.00;28.40;;;;;;5078710;28;20067;-58
2022/08/14 03:28:30;;;;;;;0.20;0.20;;;33.00;28.40;;;;;;5071591;28;20051;-53
2022/08/14 03:30:58;;;;;;;0.90;0.10;;;33.00;28.40;;;;;;5052947;28;20455;-55
2022/08/14 03:33:26;;;;;;;0.70;0.10;;;33.00;28.40;;;;;;5067769;28;20436;-54
2022/08/14 03:35:55;;;;;;;0.17;0.17;;;33.00;28.40;;;;;;5066868;28;20046;-54
2022/08/14 03:38:22;;;;;;;0.30;0.20;;;33.00;28.40;;;;;;5059609;28;20476;-54
2022/08/14 03:40:49;;;;;;;0.70;0.10;;;33.00;28.40;;;;;;5052383;28;20041;-53
2022/08/14 03:43:17;;;;;;;2.55;0.10;;;33.00;28.40;;;;;;5082577;28;20052;-55
2022/08/14 03:45:44;;;;;;;0.10;0.10;;;32.90;28.40;;;;;;5087760;28;20036;-58
2022/08/14 03:48:18;;;;;;;0.88;0.10;;;32.90;28.40;;;;;;5087563;28;20059;-57
2022/08/14 03:50:46;;;;;;;0.10;0.10;;;32.90;28.30;;;;;;5062548;28;20036;-57
2022/08/14 03:53:15;;;;;;;0.20;0.10;;;32.90;28.30;;;;;;5069151;28;20059;-58
2022/08/14 03:55:42;;;;;;;0.10;0.10;;;32.90;28.30;;;;;;5073842;28;20036;-58
2022/08/14 03:58:10;;;;;;;0.10;0.10;;;32.90;28.30;;;;;;5070384;28;20807;-57
2022/08/14 04:00:39;;;;;;;0.10;0.10;;;32.90;28.30;;;;;;5070126;28;20527;-58
2022/08/14 04:03:08;;;;;;;0.10;0.10;;;32.90;28.30;;;;;;5074516;28;20693;-57
2022/08/14 04:05:37;;;;;;;0.63;0.10;;;32.90;28.40;;;;;;5067881;28;20819;-57
2022/08/14 04:08:04;;;;;;;0.20;0.10;;;32.90;28.80;;;;;;5068249;28;20047;-57
2022/08/14 04:10:33;;;;;;;0.15;0.10;;;32.90;28.40;;;;;;5084954;28;20473;-57
2022/08/14 04:13:00;;;;;;;0.10;0.10;;;32.90;28.40;;;;;;5087203;28;20148;-57
2022/08/14 04:15:27;;;;;;;0.28;0.10;;;32.90;28.30;;;;;;5086831;28;20530;-55
2022/08/14 04:17:55;;;;;;;0.10;0.10;;;32.90;28.30;;;;;;5080335;28;20572;-53
2022/08/14 04:20:22;;;;;;;0.80;0.10;;;32.90;28.40;;;;;;5082556;28;20128;-55
2022/08/14 04:22:50;;;;;;;0.10;0.10;;;32.90;28.40;;;;;;5083292;28;20614;-53
2022/08/14 04:25:18;;;;;;;0.10;0.10;;;32.90;28.40;;;;;;5080327;28;20467;-56
2022/08/14 04:27:47;;;;;;;0.13;0.13;;;32.90;28.30;;;;;;5084595;28;20182;-56
2022/08/14 04:30:14;;;;;;;0.10;0.10;;;32.90;28.30;;;;;;5051935;28;20147;-53
2022/08/14 04:32:41;;;;;;;0.15;0.15;;;32.90;28.40;;;;;;5080393;28;20041;-54
2022/08/14 04:35:09;;;;;;;1.23;0.10;;;32.90;28.40;;;;;;5077459;28;20284;-56
2022/08/14 04:45:51;;;;;;;0.38;0.20;;;32.80;28.40;;;;;;5070959;28;20045;-57
2022/08/14 04:48:19;;;;;;;0.82;0.10;;;32.80;28.40;;;;;;5074698;28;20403;-55
2022/08/14 04:50:48;;;;;;;0.30;0.17;;;32.80;28.40;;;;;;5082567;28;20063;-54
2022/08/14 04:53:18;;;;;;;0.55;0.20;;;32.80;28.40;;;;;;5087895;28;20114;-58
2022/08/14 04:55:48;;;;;;;1.17;0.20;;;32.80;28.40;;;;;;5073029;28;20595;-56
2022/08/14 04:58:17;;;;;;;0.30;0.17;;;32.80;28.40;;;;;;5087007;28;20044;-54
2022/08/14 05:00:45;;;;;;;0.40;0.17;;;32.80;28.40;;;;;;5080718;28;20036;-57
2022/08/14 05:03:12;;;;;;;0.20;0.20;;;32.80;28.40;;;;;;5060886;28;20474;-54
2022/08/14 05:05:39;;;;;;;0.43;0.20;;;32.80;28.40;;;;;;5086127;28;20036;-56
2022/08/14 05:08:11;;;;;;;0.20;0.20;;;32.80;28.40;;;;;;5079149;28;20127;-57
2022/08/14 05:10:42;;;;;;;0.20;0.17;;;32.80;28.40;;;;;;5089426;28;20060;-54
2022/08/14 05:13:09;;;;;;;0.40;0.40;;;32.80;28.40;;;;;;5085106;28;20060;-56
2022/08/14 05:15:40;;;;;;;0.30;0.17;;;32.80;28.40;;;;;;5077109;28;20040;-57
2022/08/14 05:18:12;;;;;;;1.67;0.20;;;32.80;28.40;;;;;;5081102;28;20040;-56
2022/08/14 05:20:44;;;;;;;0.90;0.10;;;32.70;28.30;;;;;;5076902;28;20036;-58
2022/08/14 05:23:12;;;;;;;0.35;0.20;;;32.70;28.40;;;;;;5070280;28;20882;-56
2022/08/14 05:25:40;;;;;;;1.38;0.65;;;32.70;28.40;;;;;;5070277;28;20055;-58
2022/08/14 05:28:09;;;;;;;0.20;0.10;;;32.70;28.40;;;;;;5071527;28;20094;-57
2022/08/14 05:30:38;;;;;;;0.22;0.15;;;32.70;28.40;;;;;;5088396;28;20043;-56
2022/08/14 05:33:05;;;;;;;1.15;0.10;;;32.70;28.40;;;;;;5077027;28;20044;-57
2022/08/14 05:35:33;;;;;;;1.08;0.10;;;32.70;28.40;;;;;;5075026;28;20044;-56
2022/08/14 05:38:00;;;;;;;0.98;0.10;;;32.70;28.40;;;;;;5069757;28;20044;-53
2022/08/14 05:40:27;;;;;;;0.50;0.10;;;32.70;28.40;;;;;;5083019;28;20871;-57
2022/08/14 05:42:54;;;;;;;1.48;0.10;;;32.70;28.40;;;;;;5071618;28;20040;-55
2022/08/14 05:45:21;;;;;;;0.20;0.10;;;32.70;28.40;;;;;;5082682;28;20044;-57
2022/08/14 05:47:49;;;;;;;0.30;0.10;;;32.70;28.40;;;;;;5089495;28;20046;-58
2022/08/14 05:50:16;;;;;;;0.63;0.47;;;32.70;28.40;;;;;;5081410;28;20502;-57
2022/08/14 05:52:43;;;;;;;0.85;0.10;;;32.70;28.90;;;;;;5082802;28;20036;-55
2022/08/14 05:55:12;;;;;;;0.20;0.10;;;32.60;28.40;;;;;;5075145;28;20074;-57
2022/08/14 05:57:50;;;;;;;0.20;0.20;;;32.60;28.30;;;;;;5089675;28;20689;-56
2022/08/14 06:00:19;;;;;;;0.52;0.25;;;32.70;28.40;;;;;;5089206;28;20040;-57
2022/08/14 06:02:46;;;;;;;0.20;0.10;;;32.60;28.40;;;;;;5089052;28;20064;-57
2022/08/14 06:05:14;;;;;;;0.55;0.10;;;32.70;28.40;;;;;;5089004;28;20139;-57
2022/08/14 06:07:41;;;;;;;0.47;0.10;;;32.70;28.40;;;;;;5088766;28;20040;-57
2022/08/14 06:10:10;;;;;;;0.40;0.10;;;32.60;28.40;;;;;;5088916;28;20068;-56
2022/08/14 06:12:37;;;;;;;0.10;0.10;;;32.60;28.40;;;;;;5082165;28;20047;-57
2022/08/14 06:15:05;;;;;;;1.38;0.30;;;32.60;28.40;;;;;;5081142;28;20047;-57
2022/08/14 06:17:32;;;;;;;0.32;0.32;;;32.60;28.40;;;;;;5035235;28;20044;-57
2022/08/14 06:20:00;;;;;;;0.45;0.10;;;32.60;28.40;;;;;;5071198;28;20076;-57
2022/08/14 06:22:28;;;;;;;1.17;0.22;;;32.60;28.40;;;;;;5069034;28;20053;-58
2022/08/14 06:24:55;;;;;;;2.35;0.17;;;32.60;28.40;;;;;;5075987;28;20051;-58
2022/08/14 06:27:22;;;;;;;0.40;0.40;;;32.60;28.50;;;;;;5068963;28;20037;-58
2022/08/14 06:29:49;;;;;;;0.43;0.30;;;32.60;28.40;;;;;;5082517;28;20064;-59
2022/08/14 06:32:16;;;;;;;0.77;0.40;;;32.60;28.50;;;;;;5075288;28;20043;-58
2022/08/14 06:34:43;;;;;;;5.00;0.50;;;32.60;28.50;;;;;;5082370;28;20049;-58
2022/08/14 06:37:10;;;;;;;1.88;0.75;;;32.60;28.50;;;;;;5050697;28;20133;-58
2022/08/14 06:39:39;;;;;;;0.90;0.45;;;32.60;28.50;;;;;;5088370;28;20055;-58
2022/08/14 06:42:06;;;;;;;1.85;0.40;;;32.60;28.50;;;;;;5054426;28;20048;-58
2022/08/14 06:44:33;;;;;;;3.00;0.45;;;32.60;28.50;;;;;;5082505;28;20048;-58
2022/08/14 06:47:01;;;;;;;1.20;0.20;;;32.60;28.50;;;;;;5087184;28;20044;-57
2022/08/14 06:49:28;;;;;;;2.25;0.40;;;32.60;28.50;;;;;;5085338;28;20070;-57
2022/08/14 06:51:56;;;;;;;1.27;0.50;;;32.60;28.50;;;;;;5085716;28;20036;-58
2022/08/14 06:54:23;;;;;;;1.92;0.68;;;32.60;28.60;;;;;;5069523;28;20045;-59
2022/08/14 06:56:52;;;;;;;1.48;0.38;;;32.60;29.00;;;;;;5080316;28;20071;-58
2022/08/14 06:59:19;;;;;;;0.93;0.30;;;32.60;28.60;;;;;;5088238;28;20121;-57
2022/08/14 07:07:16;;;;;;;1.33;0.30;;;32.60;28.60;;;;;;5070608;28;20488;-56
2022/08/14 07:09:43;;;;;;;0.77;0.22;;;32.60;28.60;;;;;;5066936;28;20067;-57
2022/08/14 07:12:13;;;;;;;0.75;0.40;;;32.60;28.60;;;;;;5066077;28;20129;-58
2022/08/14 07:14:40;;;;;;;0.75;0.30;;;32.60;28.70;;;;;;5087845;28;20043;-57
2022/08/14 07:17:07;;;;;;;0.93;0.43;;;32.60;28.70;;;;;;5087278;28;20058;-59
2022/08/14 07:19:34;;;;;;;0.55;0.20;;;32.60;28.70;;;;;;5071565;28;20137;-58
2022/08/14 07:22:01;;;;;;;0.73;0.28;;;32.60;28.70;;;;;;5083687;28;20059;-57
2022/08/14 07:24:28;;;;;;;0.88;0.20;;;32.60;28.70;;;;;;5075721;28;20170;-61
2022/08/14 07:26:55;;;;;;;1.15;0.47;;;32.60;28.70;;;;;;5081106;28;20040;-58
2022/08/14 07:29:24;;;;;;;0.32;0.25;;;32.60;28.70;;;;;;5077758;28;20221;-57
2022/08/14 07:31:51;;;;;;;0.98;0.30;;;32.60;28.70;;;;;;5069902;28;20081;-57
2022/08/14 07:34:18;;;;;;;0.43;0.30;;;32.60;28.80;;;;;;5072034;28;20052;-57
2022/08/14 07:36:45;;;;;;;1.60;0.47;;;32.60;29.20;;;;;;5067754;28;20032;-57
2022/08/14 07:39:12;;;;;;;0.20;0.10;;;32.60;28.80;;;;;;5069479;28;20083;-53
2022/08/14 07:41:39;;;;;;;0.80;0.30;;;32.60;28.80;;;;;;5087459;28;20036;-57
2022/08/14 07:44:06;;;;;;;1.60;0.52;;;32.60;28.80;;;;;;5079757;28;20125;-57
2022/08/14 07:46:34;;;;;;;2.15;0.15;;;32.60;28.80;;;;;;5081888;28;20036;-58
2022/08/14 07:49:01;;;;;;;0.70;0.10;;;32.60;28.80;;;;;;5085910;28;20032;-57
2022/08/14 07:51:29;;;;;;;0.30;0.20;;;32.60;28.80;;;;;;5072961;28;20044;-57
2022/08/14 07:53:57;;;;;;;2.70;0.20;;;32.60;28.80;;;;;;5074183;28;20176;-58
2022/08/14 07:56:24;;;;;;;0.20;0.13;;;32.60;28.80;;;;;;5086292;28;20067;-58
2022/08/14 07:58:52;;;;;;;0.15;0.10;;;32.60;28.80;;;;;;5081931;28;20089;-58
2022/08/14 08:01:19;;;;;;;0.50;0.10;;;32.60;28.80;;;;;;5078928;28;20040;-58
2022/08/14 08:03:49;;;;;;;0.80;0.28;;;32.60;28.80;;;;;;5079873;28;20085;-58
2022/08/14 08:06:17;;;;;;;1.65;0.20;;;32.60;28.80;;;;;;5087262;28;20185;-58
2022/08/14 08:08:47;;;;;;;0.10;0.10;;;32.60;28.80;;;;;;5087166;28;20066;-57
2022/08/14 08:11:15;;;;;;;1.13;0.10;;;32.60;28.80;;;;;;5086564;28;20056;-58
2022/08/14 08:13:42;;;;;;;0.70;0.20;;;32.60;28.80;;;;;;5079456;28;20037;-58
2022/08/14 08:16:09;;;;;;;0.95;0.45;;;32.60;28.90;;;;;;5075861;28;20083;-56
2022/08/14 08:18:37;;;;;;;1.75;0.20;;;32.70;28.90;;;;;;5082560;28;20028;-58
2022/08/14 08:21:07;;;;;;;0.35;0.20;;;32.70;29.00;;;;;;5082638;28;20741;-58
2022/08/14 08:23:34;;;;;;;1.65;0.22;;;32.70;29.00;;;;;;5094234;28;20105;-57
2022/08/14 08:26:01;;;;;;;1.38;0.20;;;32.70;29.00;;;;;;5080233;28;20472;-58
2022/08/14 08:28:30;;;;;;;0.82;0.20;;;32.70;29.00;;;;;;5064592;28;20527;-58
2022/08/14 08:31:00;;;;;;;1.85;0.20;;;32.70;29.00;;;;;;5080068;28;20122;-57
2022/08/14 08:33:29;;;;;;;1.45;0.10;;;32.70;28.90;;;;;;5085556;28;20051;-57
2022/08/14 08:35:59;;;;;;;1.50;0.20;;;32.70;28.90;;;;;;5092460;28;20040;-55
2022/08/14 08:38:29;;;;;;;0.30;0.20;;;32.70;29.00;;;;;;5071090;28;20128;-59
2022/08/14 08:40:59;;;;;;;0.80;0.20;;;32.70;28.90;;;;;;5093748;28;20523;-55
2022/08/14 08:43:28;;;;;;;0.38;0.20;;;32.70;29.00;;;;;;5097843;28;20458;-56
2022/08/14 08:45:57;;;;;;;0.40;0.20;;;32.70;29.00;;;;;;5084355;28;20585;-56
2022/08/14 08:48:27;;;;;;;0.28;0.10;;;32.70;29.00;;;;;;5076545;28;20139;-58
2022/08/14 08:50:55;;;;;;;0.77;0.20;;;32.70;29.00;;;;;;5067459;28;20040;-55
2022/08/14 08:53:22;;;;;;;0.10;0.10;;;32.70;29.00;;;;;;5078077;28;23732;-58
2022/08/14 08:55:51;;;;;;;0.32;0.17;;;32.80;29.10;;;;;;5077682;28;20139;-57
2022/08/14 08:58:19;;;;;;;3.83;0.20;;;32.80;29.10;;;;;;5083090;28;20046;-57
2022/08/14 09:00:48;;;;;;;0.20;0.10;;;32.80;29.60;;;;;;5093087;28;20060;-57
2022/08/14 09:03:20;;;;;;;0.38;0.38;;;32.80;29.20;;;;;;5092928;28;20131;-58
2022/08/14 09:05:52;;;;;;;0.93;0.10;;;32.80;29.20;;;;;;5093199;28;20044;-58
2022/08/14 09:08:20;;;;;;;0.30;0.10;;;32.80;29.20;;;;;;5093630;28;20113;-58
2022/08/14 09:10:48;;;;;;;0.10;0.10;;;32.80;29.30;;;;;;5074997;28;20046;-58
2022/08/14 09:13:18;;;;;;;0.20;0.17;;;32.80;29.30;;;;;;5071224;28;20037;-56
2022/08/14 09:15:46;;;;;;;0.10;0.10;;;32.80;29.30;;;;;;5076129;28;20047;-56
2022/08/14 09:18:16;;;;;;;0.30;0.20;;;32.90;29.40;;;;;;5055989;28;20055;-55
2022/08/14 09:20:45;;;;;;;1.08;0.32;;;32.90;29.50;;;;;;5090913;28;20048;-57
2022/08/14 09:23:13;;;;;;;6.65;0.20;;;32.90;29.50;;;;;;5088767;28;20584;-57
2022/08/14 09:25:43;;;;;;;0.10;0.10;;;32.90;29.50;;;;;;5084745;28;20696;-57
2022/08/14 09:28:11;;;;;;;0.10;0.10;;;32.90;30.00;;;;;;5086336;28;20067;-58
2022/08/14 09:30:42;;;;;;;1.05;0.38;;;32.90;29.60;;;;;;5083257;28;20046;-55
2022/08/14 09:33:55;;;;;;;0.75;0.10;;;32.90;29.60;;;;;;5071173;28;20143;-56
2022/08/14 09:36:38;;;;;;;0.50;0.20;;;33.00;29.60;;;;;;5061092;28;20447;-59
2022/08/14 09:39:12;;;;;;;1.25;0.10;;;33.00;29.70;;;;;;5090265;28;20051;-55
2022/08/14 09:41:51;;;;;;;0.53;0.30;;;32.90;29.70;;;;;;5071189;28;20044;-57
2022/08/14 09:44:33;;;;;;;1.58;0.60;;;33.00;29.70;;;;;;5076365;28;20141;-57
2022/08/14 09:47:02;;;;;;;0.20;0.20;;;33.00;29.80;;;;;;5074000;28;20043;-58
2022/08/14 09:49:33;;;;;;;1.70;0.28;;;33.00;29.80;;;;;;5089319;28;20047;-57
2022/08/14 09:52:05;;;;;;;0.60;0.52;;;33.00;30.30;;;;;;5072049;28;20059;-57
2022/08/14 09:54:38;;;;;;;2.03;0.20;;;33.00;29.80;;;;;;5088370;28;20048;-58
2022/08/14 09:57:09;;;;;;;0.75;0.20;;;33.10;29.90;;;;;;5071544;28;20044;-56
2022/08/14 09:59:42;;;;;;;0.47;0.13;;;33.00;29.90;;;;;;5079398;28;20044;-58
2022/08/14 10:02:22;;;;;;;0.82;0.20;;;33.10;29.90;;;;;;5075739;28;20079;-57
2022/08/14 10:05:00;;;;;;;0.55;0.10;;;33.10;29.90;;;;;;5058774;28;20124;-55
2022/08/14 10:07:32;;;;;;;1.50;0.30;;;33.10;29.90;;;;;;5071048;28;20091;-57
2022/08/14 10:10:00;;;;;;;0.47;0.10;;;33.10;29.90;;;;;;5089617;28;20101;-54
2022/08/14 10:12:42;;;;;;;0.55;0.10;;;33.10;29.90;;;;;;5077835;28;20677;-54
2022/08/14 10:15:18;;;;;;;2.13;0.20;;;33.20;30.00;;;;;;5089262;28;20121;-56
2022/08/14 10:17:47;;;;;;;0.90;0.10;;;33.10;29.90;;;;;;5069893;28;20047;-56
2022/08/14 10:20:16;;;;;;;3.72;0.28;;;33.10;29.80;;;;;;5064497;28;20139;-58
2022/08/14 10:22:43;;;;;;;1.17;0.10;;;33.10;29.80;;;;;;5069570;28;20042;-58
2022/08/14 10:25:13;;;;;;;0.63;0.10;;;33.20;29.90;;;;;;5057915;28;20040;-55
2022/08/14 10:27:43;;;;;;;0.68;0.30;;;33.20;30.00;;;;;;5088473;28;20036;-58
2022/08/14 10:30:14;;;;;;;1.02;0.20;;;33.20;30.00;;;;;;5070605;28;20056;-57
2022/08/14 10:32:47;;;;;;;1.73;0.20;;;33.20;29.90;;;;;;5088701;28;20569;-59
2022/08/14 10:35:15;;;;;;;0.30;0.20;;;33.20;29.80;;;;;;5095762;28;20125;-59
2022/08/14 10:37:47;;;;;;;1.77;0.10;;;33.20;29.90;;;;;;5088899;28;20114;-56
2022/08/14 10:40:17;;;;;;;0.20;0.20;;;33.30;29.90;;;;;;5088649;28;20069;-58
2022/08/14 10:42:45;;;;;;;0.32;0.10;;;33.30;29.90;;;;;;5084718;28;20054;-58
2022/08/14 10:45:20;;;;;;;1.27;0.57;;;33.30;29.90;;;;;;5084200;28;20043;-58
2022/08/14 10:47:49;;;;;;;0.98;0.20;;;33.30;29.90;;;;;;5085497;28;20076;-58
2022/08/14 10:50:17;;;;;;;0.20;0.20;;;33.30;30.00;;;;;;5081651;28;20514;-59
2022/08/14 10:52:45;;;;;;;1.52;0.15;;;33.30;30.00;;;;;;5069968;28;20044;-57
2022/08/14 10:55:18;;;;;;;0.25;0.10;;;33.30;30.00;;;;;;5078506;28;20059;-58
2022/08/14 10:57:50;;;;;;;0.85;0.20;;;33.30;30.00;;;;;;5079063;28;20044;-58
2022/08/14 11:00:19;;;;;;;3.22;0.75;;;33.40;30.00;;;;;;5082740;28;20053;-59
2022/08/14 11:02:59;;;;;;;1.23;0.10;;;33.30;30.00;;;;;;5079655;28;20032;-58
2022/08/14 11:05:39;;;;;;;0.40;0.30;;;33.40;30.00;;;;;;5081677;28;20405;-58
2022/08/14 11:08:07;;;;;;;1.23;0.10;;;33.30;30.00;;;;;;5082823;28;20603;-58
2022/08/14 11:10:41;;;;;;;0.60;0.55;;;33.30;30.00;;;;;;5087764;28;20044;-58
2022/08/14 11:13:09;;;;;;;0.80;0.10;;;33.30;30.00;;;;;;5088029;28;20090;-59
2022/08/14 11:15:36;;;;;;;0.77;0.10;;;33.30;30.00;;;;;;5070001;28;20048;-58
2022/08/14 11:18:05;;;;;;;0.35;0.35;;;33.30;30.00;;;;;;5086148;28;20090;-58
2022/08/14 11:20:32;;;;;;;2.80;0.28;;;33.40;30.10;;;;;;5083487;28;20055;-58
2022/08/14 11:23:00;;;;;;;1.23;0.35;;;33.40;30.10;;;;;;5071792;28;20098;-58
2022/08/14 11:25:31;;;;;;;4.25;0.30;;;33.40;30.10;;;;;;5070507;28;20135;-58
2022/08/14 11:28:00;;;;;;;0.20;0.20;;;33.40;30.20;;;;;;5068922;28;20055;-54
2022/08/14 11:30:29;;;;;;;0.25;0.20;;;33.40;30.20;;;;;;5076441;28;20046;-58
2022/08/14 11:32:57;;;;;;;0.40;0.17;;;33.40;30.10;;;;;;5087792;28;20055;-59
2022/08/14 11:35:27;;;;;;;0.80;0.30;;;33.40;30.20;;;;;;5085040;28;20039;-57
2022/08/14 11:37:56;;;;;;;2.08;0.30;;;33.40;30.20;;;;;;5068336;28;20052;-58
2022/08/14 11:40:25;;;;;;;0.98;0.20;;;33.40;30.10;;;;;;5083567;28;20809;-58
2022/08/14 11:42:54;;;;;;;0.50;0.45;;;33.40;30.20;;;;;;5084177;28;20044;-58
2022/08/14 11:45:23;;;;;;;2.45;0.10;;;33.40;30.20;;;;;;5084407;28;20094;-59
2022/08/14 11:47:51;;;;;;;2.08;0.57;;;33.40;30.10;;;;;;5071134;28;20044;-58
2022/08/14 11:50:22;;;;;;;0.75;0.15;;;33.40;30.40;;;;;;5087391;28;20512;-58
2022/08/14 11:52:54;;;;;;;1.83;0.10;;;33.40;30.20;;;;;;5087024;28;20051;-59
2022/08/14 11:55:21;;;;;;;2.83;0.30;;;33.40;30.30;;;;;;5087010;28;20534;-59
2022/08/14 11:57:58;;;;;;;0.35;0.25;;;33.50;30.40;;;;;;5087441;28;20157;-57
2022/08/14 12:00:25;;;;;;;0.52;0.17;;;33.40;30.40;;;;;;5074532;28;20044;-58
2022/08/14 12:02:54;;;;;;;0.75;0.75;;;33.40;30.50;;;;;;5080157;28;20036;-57
2022/08/14 12:05:32;;;;;;;4.47;0.40;;;33.40;30.50;;;;;;5087285;28;20508;-56
2022/08/14 12:08:03;;;;;;;0.73;0.35;;;33.50;30.60;;;;;;5067202;28;20119;-58
2022/08/14 12:10:32;;;;;;;0.20;0.15;;;33.50;30.70;;;;;;5068916;28;20085;-58
2022/08/14 12:13:09;;;;;;;1.48;0.55;;;33.50;30.80;;;;;;5087342;28;20040;-57
2022/08/14 12:15:37;;;;;;;0.47;0.43;;;33.50;30.90;;;;;;5082209;28;20051;-57
2022/08/14 12:18:04;;;;;;;0.63;0.38;;;33.50;30.90;;;;;;5068741;28;20040;-58
2022/08/14 12:20:35;;;;;;;0.77;0.77;;;33.50;31.00;;;;;;5075502;28;20052;-59
2022/08/14 12:23:05;;;;;;;3.60;0.20;;;33.50;31.10;;;;;;5071737;28;20128;-58
2022/08/14 12:25:34;;;;;;;2.90;0.10;;;33.50;31.20;;;;;;5067599;28;20040;-57
2022/08/14 12:28:07;;;;;;;0.30;0.20;;;33.50;31.20;;;;;;5077504;28;20114;-56
2022/08/14 12:30:37;;;;;;;0.50;0.20;;;33.50;31.20;;;;;;5085624;28;20500;-57
2022/08/14 12:33:07;;;;;;;0.40;0.15;;;33.50;31.30;;;;;;5069128;28;20052;-58
2022/08/14 12:35:39;;;;;;;0.40;0.20;;;33.50;31.40;;;;;;5076752;28;20479;-57
2022/08/14 12:38:09;;;;;;;0.82;0.20;;;33.50;31.40;;;;;;5073389;28;20048;-57
2022/08/14 12:40:46;;;;;;;0.93;0.25;;;33.50;31.50;;;;;;5062483;28;20108;-57
2022/08/14 12:43:14;;;;;;;1.05;0.85;;;33.50;31.60;;;;;;5086122;28;20067;-59
2022/08/14 12:45:48;;;;;;;0.52;0.20;;;33.50;31.70;;;;;;5080735;28;20409;-59
2022/08/14 12:48:17;;;;;;;1.33;0.40;;;33.40;31.90;;;;;;5068515;28;20090;-55
2022/08/14 12:50:45;;;;;;;1.30;0.20;;;33.50;32.00;;;;;;5080092;28;20067;-57
2022/08/14 12:53:14;;;;;;;4.60;0.20;;;33.40;32.20;;;;;;5086253;28;20044;-56
2022/08/14 12:55:44;;;;;;;1.15;0.10;;;33.40;32.40;;;;;;5057357;28;20079;-58
2022/08/14 12:58:11;;;;;;;0.47;0.30;;;33.50;32.50;;;;;;5073802;28;20048;-57
2022/08/14 13:00:49;;;;;;;0.35;0.15;;;33.40;32.50;;;;;;5075638;28;20105;-55
2022/08/14 13:03:24;;;;;;;0.38;0.32;;;33.50;32.60;;;;;;5086460;28;20054;-56
2022/08/14 13:05:52;;;;;;;0.73;0.20;;;33.40;32.60;;;;;;5079911;28;20041;-57
2022/08/14 13:08:21;;;;;;;1.08;0.20;;;33.40;33.00;;;;;;5054409;28;20040;-58
2022/08/14 13:10:50;;;;;;;2.33;0.10;;;33.40;32.80;;;;;;5090282;28;20048;-58
2022/08/14 13:13:19;;;;;;;0.57;0.20;;;33.40;33.00;;;;;;5088296;28;20040;-57
2022/08/14 13:15:51;;;;;;;2.05;0.10;;;33.40;33.00;;;;;;5070901;28;20062;-58
2022/08/14 13:18:21;;;;;;;2.80;0.20;;;33.40;33.00;;;;;;5086843;28;20052;-56